sensor_id;sensor_type;location;lat;lon;timestamp;P1;P2;P0
75946;PMS5003;64628;50.104;14.614;2024-02-21T00:00:03;35;33;
75946;PMS5003;64628;50.104;14.614;2024-02-21T00:02:29;66;48;
75946;PMS5003;64628;50.104;14.614;2024-02-21T00:04:54;47;40;
75946;PMS5003;64628;50.104;14.614;2024-02-21T00:07:19;87;81;
75946;PMS5003;64628;50.104;14.614;2024-02-21T00:09:45;80;75;
75946;PMS5003;64628;50.104;14.614;2024-02-21T00:12:11;76;75;
75946;PMS5003;64628;50.104;14.614;2024-02-21T00:14:36;100;94;
75946;PMS5003;64628;50.104;14.614;2024-02-21T00:17:07;84;83;
75946;PMS5003;64628;50.104;14.614;2024-02-21T00:19:32;56;56;
75946;PMS5003;64628;50.104;14.614;2024-02-21T00:21:52;59;55;
75946;PMS5003;64628;50.104;14.614;2024-02-21T00:24:17;34;30;
75946;PMS5003;64628;50.104;14.614;2024-02-21T00:26:43;33;28;
75946;PMS5003;64628;50.104;14.614;2024-02-21T00:29:08;26;26;
75946;PMS5003;64628;50.104;14.614;2024-02-21T00:31:34;32;28;
75946;PMS5003;64628;50.104;14.614;2024-02-21T00:34:00;31;25;
75946;PMS5003;64628;50.104;14.614;2024-02-21T00:36:25;37;33;
75946;PMS5003;64628;50.104;14.614;2024-02-21T00:38:55;58;54;
75946;PMS5003;64628;50.104;14.614;2024-02-21T00:41:16;105;103;
75946;PMS5003;64628;50.104;14.614;2024-02-21T00:43:41;129;129;
75946;PMS5003;64628;50.104;14.614;2024-02-21T00:46:06;126;123;
75946;PMS5003;64628;50.104;14.614;2024-02-21T00:48:32;113;112;
75946;PMS5003;64628;50.104;14.614;2024-02-21T00:50:57;121;120;
75946;PMS5003;64628;50.104;14.614;2024-02-21T00:53:22;81;76;
75946;PMS5003;64628;50.104;14.614;2024-02-21T00:55:47;10;8;
75946;PMS5003;64628;50.104;14.614;2024-02-21T00:58:13;15;11;
75946;PMS5003;64628;50.104;14.614;2024-02-21T01:00:45;13;6;
75946;PMS5003;64628;50.104;14.614;2024-02-21T01:03:03;15;15;
75946;PMS5003;64628;50.104;14.614;2024-02-21T01:05:29;15;11;
75946;PMS5003;64628;50.104;14.614;2024-02-21T01:07:55;13;12;
75946;PMS5003;64628;50.104;14.614;2024-02-21T01:10:20;17;12;
75946;PMS5003;64628;50.104;14.614;2024-02-21T01:12:45;17;12;
75946;PMS5003;64628;50.104;14.614;2024-02-21T01:15:11;19;12;
75946;PMS5003;64628;50.104;14.614;2024-02-21T01:17:36;11;8;
75946;PMS5003;64628;50.104;14.614;2024-02-21T01:20:02;8;8;
75946;PMS5003;64628;50.104;14.614;2024-02-21T01:22:32;11;10;
75946;PMS5003;64628;50.104;14.614;2024-02-21T01:24:52;21;11;
75946;PMS5003;64628;50.104;14.614;2024-02-21T01:27:18;16;10;
75946;PMS5003;64628;50.104;14.614;2024-02-21T01:29:44;12;8;
75946;PMS5003;64628;50.104;14.614;2024-02-21T01:32:08;13;10;
75946;PMS5003;64628;50.104;14.614;2024-02-21T01:34:34;15;7;
75946;PMS5003;64628;50.104;14.614;2024-02-21T01:36:59;11;8;
75946;PMS5003;64628;50.104;14.614;2024-02-21T01:39:25;17;11;
75946;PMS5003;64628;50.104;14.614;2024-02-21T01:41:55;12;8;
75946;PMS5003;64628;50.104;14.614;2024-02-21T01:44:16;16;15;
75946;PMS5003;64628;50.104;14.614;2024-02-21T01:46:41;14;11;
75946;PMS5003;64628;50.104;14.614;2024-02-21T01:49:07;15;14;
75946;PMS5003;64628;50.104;14.614;2024-02-21T01:51:37;12;11;
75946;PMS5003;64628;50.104;14.614;2024-02-21T01:53:57;17;11;
75946;PMS5003;64628;50.104;14.614;2024-02-21T01:56:23;8;8;
75946;PMS5003;64628;50.104;14.614;2024-02-21T01:58:49;12;8;
75946;PMS5003;64628;50.104;14.614;2024-02-21T02:01:19;14;7;
75946;PMS5003;64628;50.104;14.614;2024-02-21T02:03:39;12;7;
75946;PMS5003;64628;50.104;14.614;2024-02-21T02:06:05;14;12;
75946;PMS5003;64628;50.104;14.614;2024-02-21T02:08:30;12;7;
75946;PMS5003;64628;50.104;14.614;2024-02-21T02:10:55;10;7;
75946;PMS5003;64628;50.104;14.614;2024-02-21T02:13:21;7;7;
75946;PMS5003;64628;50.104;14.614;2024-02-21T02:15:46;17;7;
75946;PMS5003;64628;50.104;14.614;2024-02-21T02:18:11;16;11;
75946;PMS5003;64628;50.104;14.614;2024-02-21T02:20:37;15;10;
75946;PMS5003;64628;50.104;14.614;2024-02-21T02:23:03;8;8;
75946;PMS5003;64628;50.104;14.614;2024-02-21T02:25:27;11;7;
75946;PMS5003;64628;50.104;14.614;2024-02-21T02:27:58;11;10;
75946;PMS5003;64628;50.104;14.614;2024-02-21T02:30:19;12;11;
75946;PMS5003;64628;50.104;14.614;2024-02-21T02:32:49;11;7;
75946;PMS5003;64628;50.104;14.614;2024-02-21T02:35:14;14;10;
75946;PMS5003;64628;50.104;14.614;2024-02-21T02:37:39;11;8;
75946;PMS5003;64628;50.104;14.614;2024-02-21T02:40:00;18;10;
75946;PMS5003;64628;50.104;14.614;2024-02-21T02:42:25;12;10;
75946;PMS5003;64628;50.104;14.614;2024-02-21T02:44:56;12;7;
75946;PMS5003;64628;50.104;14.614;2024-02-21T02:47:16;13;8;
75946;PMS5003;64628;50.104;14.614;2024-02-21T02:49:42;13;10;
75946;PMS5003;64628;50.104;14.614;2024-02-21T02:52:07;14;8;
75946;PMS5003;64628;50.104;14.614;2024-02-21T02:54:31;10;6;
75946;PMS5003;64628;50.104;14.614;2024-02-21T02:56:57;13;10;
75946;PMS5003;64628;50.104;14.614;2024-02-21T02:59:22;17;14;
75946;PMS5003;64628;50.104;14.614;2024-02-21T03:01:52;14;8;
75946;PMS5003;64628;50.104;14.614;2024-02-21T03:04:13;11;8;
75946;PMS5003;64628;50.104;14.614;2024-02-21T03:06:38;16;8;
75946;PMS5003;64628;50.104;14.614;2024-02-21T03:09:03;7;7;
75946;PMS5003;64628;50.104;14.614;2024-02-21T03:11:29;10;7;
75946;PMS5003;64628;50.104;14.614;2024-02-21T03:13:55;12;10;
75946;PMS5003;64628;50.104;14.614;2024-02-21T03:16:20;10;7;
75946;PMS5003;64628;50.104;14.614;2024-02-21T03:18:46;12;10;
75946;PMS5003;64628;50.104;14.614;2024-02-21T03:21:16;12;8;
75946;PMS5003;64628;50.104;14.614;2024-02-21T03:23:36;12;11;
75946;PMS5003;64628;50.104;14.614;2024-02-21T03:26:01;11;8;
75946;PMS5003;64628;50.104;14.614;2024-02-21T03:28:26;20;16;
75946;PMS5003;64628;50.104;14.614;2024-02-21T03:30:57;11;7;
75946;PMS5003;64628;50.104;14.614;2024-02-21T03:33:22;13;11;
75946;PMS5003;64628;50.104;14.614;2024-02-21T03:35:42;10;10;
75946;PMS5003;64628;50.104;14.614;2024-02-21T03:38:08;10;10;
75946;PMS5003;64628;50.104;14.614;2024-02-21T03:40:33;20;16;
75946;PMS5003;64628;50.104;14.614;2024-02-21T03:42:59;8;5;
75946;PMS5003;64628;50.104;14.614;2024-02-21T03:45:24;8;7;
75946;PMS5003;64628;50.104;14.614;2024-02-21T03:47:50;13;8;
75946;PMS5003;64628;50.104;14.614;2024-02-21T03:50:15;12;7;
75946;PMS5003;64628;50.104;14.614;2024-02-21T03:52:41;15;8;
75946;PMS5003;64628;50.104;14.614;2024-02-21T03:55:07;17;12;
75946;PMS5003;64628;50.104;14.614;2024-02-21T03:57:32;34;27;
75946;PMS5003;64628;50.104;14.614;2024-02-21T03:59:57;26;22;
75946;PMS5003;64628;50.104;14.614;2024-02-21T04:02:28;90;80;
75946;PMS5003;64628;50.104;14.614;2024-02-21T04:04:48;34;27;
75946;PMS5003;64628;50.104;14.614;2024-02-21T04:07:13;20;16;
75946;PMS5003;64628;50.104;14.614;2024-02-21T04:09:39;13;13;
75946;PMS5003;64628;50.104;14.614;2024-02-21T04:12:05;21;17;
75946;PMS5003;64628;50.104;14.614;2024-02-21T04:14:34;13;12;
75946;PMS5003;64628;50.104;14.614;2024-02-21T04:17:00;10;10;
75946;PMS5003;64628;50.104;14.614;2024-02-21T04:19:20;13;10;
75946;PMS5003;64628;50.104;14.614;2024-02-21T04:21:46;12;10;
75946;PMS5003;64628;50.104;14.614;2024-02-21T04:24:11;12;10;
75946;PMS5003;64628;50.104;14.614;2024-02-21T04:26:37;16;12;
75946;PMS5003;64628;50.104;14.614;2024-02-21T04:29:02;21;17;
75946;PMS5003;64628;50.104;14.614;2024-02-21T04:31:27;16;11;
75946;PMS5003;64628;50.104;14.614;2024-02-21T04:33:53;12;11;
75946;PMS5003;64628;50.104;14.614;2024-02-21T04:36:18;15;11;
75946;PMS5003;64628;50.104;14.614;2024-02-21T04:38:49;12;11;
75946;PMS5003;64628;50.104;14.614;2024-02-21T04:41:09;11;8;
75946;PMS5003;64628;50.104;14.614;2024-02-21T04:43:34;11;10;
75946;PMS5003;64628;50.104;14.614;2024-02-21T04:45:59;12;8;
75946;PMS5003;64628;50.104;14.614;2024-02-21T04:48:25;16;10;
75946;PMS5003;64628;50.104;14.614;2024-02-21T04:53:16;10;8;
75946;PMS5003;64628;50.104;14.614;2024-02-21T04:55:41;14;10;
75946;PMS5003;64628;50.104;14.614;2024-02-21T04:58:07;15;11;
75946;PMS5003;64628;50.104;14.614;2024-02-21T05:00:32;20;17;
75946;PMS5003;64628;50.104;14.614;2024-02-21T05:02:57;15;10;
75946;PMS5003;64628;50.104;14.614;2024-02-21T05:05:29;7;7;
75946;PMS5003;64628;50.104;14.614;2024-02-21T05:10:14;16;12;
75946;PMS5003;64628;50.104;14.614;2024-02-21T05:12:39;19;16;
75946;PMS5003;64628;50.104;14.614;2024-02-21T05:15:06;12;10;
75946;PMS5003;64628;50.104;14.614;2024-02-21T05:17:30;8;8;
75946;PMS5003;64628;50.104;14.614;2024-02-21T05:19:56;14;11;
75946;PMS5003;64628;50.104;14.614;2024-02-21T05:22:21;14;11;
75946;PMS5003;64628;50.104;14.614;2024-02-21T05:24:46;16;11;
75946;PMS5003;64628;50.104;14.614;2024-02-21T05:27:21;14;12;
75946;PMS5003;64628;50.104;14.614;2024-02-21T05:29:37;12;8;
75946;PMS5003;64628;50.104;14.614;2024-02-21T05:32:02;10;7;
75946;PMS5003;64628;50.104;14.614;2024-02-21T05:34:28;24;23;
75946;PMS5003;64628;50.104;14.614;2024-02-21T05:36:54;38;33;
75946;PMS5003;64628;50.104;14.614;2024-02-21T05:39:24;33;25;
75946;PMS5003;64628;50.104;14.614;2024-02-21T05:41:44;23;15;
75946;PMS5003;64628;50.104;14.614;2024-02-21T05:44:10;24;16;
75946;PMS5003;64628;50.104;14.614;2024-02-21T05:46:35;15;15;
75946;PMS5003;64628;50.104;14.614;2024-02-21T05:49:01;14;14;
75946;PMS5003;64628;50.104;14.614;2024-02-21T05:51:26;16;14;
75946;PMS5003;64628;50.104;14.614;2024-02-21T05:53:52;11;10;
75946;PMS5003;64628;50.104;14.614;2024-02-21T05:56:17;10;10;
75946;PMS5003;64628;50.104;14.614;2024-02-21T05:58:43;16;12;
75946;PMS5003;64628;50.104;14.614;2024-02-21T06:01:08;16;11;
75946;PMS5003;64628;50.104;14.614;2024-02-21T06:03:34;14;12;
75946;PMS5003;64628;50.104;14.614;2024-02-21T06:05:59;19;12;
75946;PMS5003;64628;50.104;14.614;2024-02-21T06:08:24;15;11;
75946;PMS5003;64628;50.104;14.614;2024-02-21T06:10:50;10;10;
75946;PMS5003;64628;50.104;14.614;2024-02-21T06:13:15;15;12;
75946;PMS5003;64628;50.104;14.614;2024-02-21T06:15:41;17;15;
75946;PMS5003;64628;50.104;14.614;2024-02-21T06:18:06;15;14;
75946;PMS5003;64628;50.104;14.614;2024-02-21T06:20:31;28;21;
75946;PMS5003;64628;50.104;14.614;2024-02-21T06:22:57;17;11;
75946;PMS5003;64628;50.104;14.614;2024-02-21T06:25:22;14;11;
75946;PMS5003;64628;50.104;14.614;2024-02-21T06:27:47;28;21;
75946;PMS5003;64628;50.104;14.614;2024-02-21T06:30:13;19;16;
75946;PMS5003;64628;50.104;14.614;2024-02-21T06:32:38;17;8;
75946;PMS5003;64628;50.104;14.614;2024-02-21T06:35:03;14;11;
75946;PMS5003;64628;50.104;14.614;2024-02-21T06:37:28;14;11;
75946;PMS5003;64628;50.104;14.614;2024-02-21T06:39:54;15;10;
75946;PMS5003;64628;50.104;14.614;2024-02-21T06:42:19;22;14;
75946;PMS5003;64628;50.104;14.614;2024-02-21T06:44:44;13;12;
75946;PMS5003;64628;50.104;14.614;2024-02-21T06:47:10;21;14;
75946;PMS5003;64628;50.104;14.614;2024-02-21T06:49:35;15;13;
75946;PMS5003;64628;50.104;14.614;2024-02-21T06:52:00;19;15;
75946;PMS5003;64628;50.104;14.614;2024-02-21T06:54:26;17;16;
75946;PMS5003;64628;50.104;14.614;2024-02-21T06:56:51;26;16;
75946;PMS5003;64628;50.104;14.614;2024-02-21T06:59:16;24;13;
75946;PMS5003;64628;50.104;14.614;2024-02-21T07:01:44;16;13;
75946;PMS5003;64628;50.104;14.614;2024-02-21T07:04:07;20;13;
75946;PMS5003;64628;50.104;14.614;2024-02-21T07:06:33;11;10;
75946;PMS5003;64628;50.104;14.614;2024-02-21T07:08:58;21;17;
75946;PMS5003;64628;50.104;14.614;2024-02-21T07:11:24;10;10;
75946;PMS5003;64628;50.104;14.614;2024-02-21T07:13:49;20;15;
75946;PMS5003;64628;50.104;14.614;2024-02-21T07:16:15;16;12;
75946;PMS5003;64628;50.104;14.614;2024-02-21T07:18:40;18;13;
75946;PMS5003;64628;50.104;14.614;2024-02-21T07:21:05;18;13;
75946;PMS5003;64628;50.104;14.614;2024-02-21T07:23:31;19;12;
75946;PMS5003;64628;50.104;14.614;2024-02-21T07:25:56;25;16;
75946;PMS5003;64628;50.104;14.614;2024-02-21T07:28:22;16;11;
75946;PMS5003;64628;50.104;14.614;2024-02-21T07:30:47;12;11;
75946;PMS5003;64628;50.104;14.614;2024-02-21T07:33:13;15;13;
75946;PMS5003;64628;50.104;14.614;2024-02-21T07:35:38;20;13;
75946;PMS5003;64628;50.104;14.614;2024-02-21T07:38:04;12;12;
75946;PMS5003;64628;50.104;14.614;2024-02-21T07:40:29;15;11;
75946;PMS5003;64628;50.104;14.614;2024-02-21T07:42:54;23;21;
75946;PMS5003;64628;50.104;14.614;2024-02-21T07:45:19;46;46;
75946;PMS5003;64628;50.104;14.614;2024-02-21T07:47:45;16;12;
75946;PMS5003;64628;50.104;14.614;2024-02-21T07:50:11;20;15;
75946;PMS5003;64628;50.104;14.614;2024-02-21T07:52:36;18;17;
75946;PMS5003;64628;50.104;14.614;2024-02-21T07:55:01;16;13;
75946;PMS5003;64628;50.104;14.614;2024-02-21T07:57:27;15;11;
75946;PMS5003;64628;50.104;14.614;2024-02-21T07:59:52;37;33;
75946;PMS5003;64628;50.104;14.614;2024-02-21T08:02:18;33;27;
75946;PMS5003;64628;50.104;14.614;2024-02-21T08:04:43;17;12;
75946;PMS5003;64628;50.104;14.614;2024-02-21T08:07:09;31;23;
75946;PMS5003;64628;50.104;14.614;2024-02-21T08:09:35;15;11;
75946;PMS5003;64628;50.104;14.614;2024-02-21T08:12:00;15;11;
75946;PMS5003;64628;50.104;14.614;2024-02-21T08:14:25;18;12;
75946;PMS5003;64628;50.104;14.614;2024-02-21T08:16:51;42;37;
75946;PMS5003;64628;50.104;14.614;2024-02-21T08:19:16;18;13;
75946;PMS5003;64628;50.104;14.614;2024-02-21T08:21:41;21;13;
75946;PMS5003;64628;50.104;14.614;2024-02-21T08:24:07;37;27;
75946;PMS5003;64628;50.104;14.614;2024-02-21T08:26:33;52;44;
75946;PMS5003;64628;50.104;14.614;2024-02-21T08:28:58;30;28;
75946;PMS5003;64628;50.104;14.614;2024-02-21T08:31:23;31;22;
75946;PMS5003;64628;50.104;14.614;2024-02-21T08:33:49;46;43;
75946;PMS5003;64628;50.104;14.614;2024-02-21T08:36:17;49;45;
75946;PMS5003;64628;50.104;14.614;2024-02-21T08:38:40;69;63;
75946;PMS5003;64628;50.104;14.614;2024-02-21T08:41:05;69;69;
75946;PMS5003;64628;50.104;14.614;2024-02-21T08:43:31;21;19;
75946;PMS5003;64628;50.104;14.614;2024-02-21T08:45:56;30;26;
75946;PMS5003;64628;50.104;14.614;2024-02-21T08:48:22;25;20;
75946;PMS5003;64628;50.104;14.614;2024-02-21T08:50:48;58;48;
75946;PMS5003;64628;50.104;14.614;2024-02-21T08:53:13;32;30;
75946;PMS5003;64628;50.104;14.614;2024-02-21T08:55:39;26;22;
75946;PMS5003;64628;50.104;14.614;2024-02-21T08:58:04;21;19;
75946;PMS5003;64628;50.104;14.614;2024-02-21T09:00:29;24;17;
75946;PMS5003;64628;50.104;14.614;2024-02-21T09:02:55;21;18;
75946;PMS5003;64628;50.104;14.614;2024-02-21T09:05:20;18;16;
75946;PMS5003;64628;50.104;14.614;2024-02-21T09:07:45;22;19;
75946;PMS5003;64628;50.104;14.614;2024-02-21T09:10:11;24;18;
75946;PMS5003;64628;50.104;14.614;2024-02-21T09:12:36;15;14;
75946;PMS5003;64628;50.104;14.614;2024-02-21T09:15:01;19;15;
75946;PMS5003;64628;50.104;14.614;2024-02-21T09:17:26;20;17;
75946;PMS5003;64628;50.104;14.614;2024-02-21T09:19:52;25;23;
75946;PMS5003;64628;50.104;14.614;2024-02-21T09:22:17;21;18;
75946;PMS5003;64628;50.104;14.614;2024-02-21T09:24:43;19;19;
75946;PMS5003;64628;50.104;14.614;2024-02-21T09:27:08;47;43;
75946;PMS5003;64628;50.104;14.614;2024-02-21T09:29:33;23;22;
75946;PMS5003;64628;50.104;14.614;2024-02-21T09:31:59;42;39;
75946;PMS5003;64628;50.104;14.614;2024-02-21T09:34:24;97;89;
75946;PMS5003;64628;50.104;14.614;2024-02-21T09:36:50;45;42;
75946;PMS5003;64628;50.104;14.614;2024-02-21T09:39:15;15;15;
75946;PMS5003;64628;50.104;14.614;2024-02-21T09:41:42;15;15;
75946;PMS5003;64628;50.104;14.614;2024-02-21T09:44:05;17;12;
75946;PMS5003;64628;50.104;14.614;2024-02-21T09:49:01;17;12;
75946;PMS5003;64628;50.104;14.614;2024-02-21T09:51:21;15;13;
75946;PMS5003;64628;50.104;14.614;2024-02-21T09:53:48;13;11;
75946;PMS5003;64628;50.104;14.614;2024-02-21T09:56:13;20;19;
75946;PMS5003;64628;50.104;14.614;2024-02-21T09:58:39;13;11;
75946;PMS5003;64628;50.104;14.614;2024-02-21T10:01:04;15;12;
75946;PMS5003;64628;50.104;14.614;2024-02-21T10:03:30;13;13;
75946;PMS5003;64628;50.104;14.614;2024-02-21T10:05:55;13;12;
75946;PMS5003;64628;50.104;14.614;2024-02-21T10:08:21;12;10;
75946;PMS5003;64628;50.104;14.614;2024-02-21T10:10:47;10;8;
75946;PMS5003;64628;50.104;14.614;2024-02-21T10:15:37;13;11;
75946;PMS5003;64628;50.104;14.614;2024-02-21T10:18:03;14;11;
75946;PMS5003;64628;50.104;14.614;2024-02-21T10:20:27;15;12;
75946;PMS5003;64628;50.104;14.614;2024-02-21T10:25:17;13;11;
75946;PMS5003;64628;50.104;14.614;2024-02-21T10:27:43;10;10;
75946;PMS5003;64628;50.104;14.614;2024-02-21T10:30:13;12;11;
75946;PMS5003;64628;50.104;14.614;2024-02-21T10:32:34;18;12;
75946;PMS5003;64628;50.104;14.614;2024-02-21T10:35:02;13;13;
75946;PMS5003;64628;50.104;14.614;2024-02-21T10:37:24;13;12;
75946;PMS5003;64628;50.104;14.614;2024-02-21T10:39:49;12;7;
75946;PMS5003;64628;50.104;14.614;2024-02-21T10:42:14;12;11;
75946;PMS5003;64628;50.104;14.614;2024-02-21T10:44:40;9;9;
75946;PMS5003;64628;50.104;14.614;2024-02-21T10:47:06;35;32;
75946;PMS5003;64628;50.104;14.614;2024-02-21T10:49:31;32;32;
75946;PMS5003;64628;50.104;14.614;2024-02-21T10:51:58;50;47;
75946;PMS5003;64628;50.104;14.614;2024-02-21T10:54:26;82;78;
75946;PMS5003;64628;50.104;14.614;2024-02-21T10:56:47;14;11;
75946;PMS5003;64628;50.104;14.614;2024-02-21T10:59:13;13;9;
75946;PMS5003;64628;50.104;14.614;2024-02-21T11:01:38;26;23;
75946;PMS5003;64628;50.104;14.614;2024-02-21T11:04:04;41;39;
75946;PMS5003;64628;50.104;14.614;2024-02-21T11:06:29;45;40;
75946;PMS5003;64628;50.104;14.614;2024-02-21T11:09:00;64;63;
75946;PMS5003;64628;50.104;14.614;2024-02-21T11:11:20;167;165;
75946;PMS5003;64628;50.104;14.614;2024-02-21T11:13:46;75;74;
75946;PMS5003;64628;50.104;14.614;2024-02-21T11:16:11;74;72;
75946;PMS5003;64628;50.104;14.614;2024-02-21T11:18:37;44;42;
75946;PMS5003;64628;50.104;14.614;2024-02-21T11:21:02;112;108;
75946;PMS5003;64628;50.104;14.614;2024-02-21T11:23:28;85;83;
75946;PMS5003;64628;50.104;14.614;2024-02-21T11:30:45;49;47;
75946;PMS5003;64628;50.104;14.614;2024-02-21T11:33:10;64;64;
75946;PMS5003;64628;50.104;14.614;2024-02-21T11:35:36;56;53;
75946;PMS5003;64628;50.104;14.614;2024-02-21T11:38:08;33;32;
75946;PMS5003;64628;50.104;14.614;2024-02-21T11:40:26;44;41;
75946;PMS5003;64628;50.104;14.614;2024-02-21T11:42:51;48;47;
75946;PMS5003;64628;50.104;14.614;2024-02-21T11:45:17;63;60;
75946;PMS5003;64628;50.104;14.614;2024-02-21T11:47:42;30;30;
75946;PMS5003;64628;50.104;14.614;2024-02-21T11:50:09;26;26;
75946;PMS5003;64628;50.104;14.614;2024-02-21T11:52:32;34;34;
75946;PMS5003;64628;50.104;14.614;2024-02-21T11:54:57;19;18;
75946;PMS5003;64628;50.104;14.614;2024-02-21T11:57:23;29;26;
75946;PMS5003;64628;50.104;14.614;2024-02-21T11:59:48;40;40;
75946;PMS5003;64628;50.104;14.614;2024-02-21T12:02:14;31;31;
75946;PMS5003;64628;50.104;14.614;2024-02-21T12:04:39;42;41;
75946;PMS5003;64628;50.104;14.614;2024-02-21T12:07:04;25;20;
75946;PMS5003;64628;50.104;14.614;2024-02-21T12:09:29;26;23;
75946;PMS5003;64628;50.104;14.614;2024-02-21T12:11:57;22;17;
75946;PMS5003;64628;50.104;14.614;2024-02-21T12:14:19;25;25;
75946;PMS5003;64628;50.104;14.614;2024-02-21T12:16:45;39;36;
75946;PMS5003;64628;50.104;14.614;2024-02-21T12:19:11;9;9;
75946;PMS5003;64628;50.104;14.614;2024-02-21T12:21:37;7;7;
75946;PMS5003;64628;50.104;14.614;2024-02-21T12:26:28;30;29;
75946;PMS5003;64628;50.104;14.614;2024-02-21T12:28:53;13;11;
75946;PMS5003;64628;50.104;14.614;2024-02-21T12:31:19;11;7;
75946;PMS5003;64628;50.104;14.614;2024-02-21T12:33:44;13;11;
75946;PMS5003;64628;50.104;14.614;2024-02-21T12:36:09;39;39;
75946;PMS5003;64628;50.104;14.614;2024-02-21T12:38:35;94;94;
75946;PMS5003;64628;50.104;14.614;2024-02-21T12:41:00;83;82;
75946;PMS5003;64628;50.104;14.614;2024-02-21T12:43:26;35;32;
75946;PMS5003;64628;50.104;14.614;2024-02-21T12:45:52;27;21;
75946;PMS5003;64628;50.104;14.614;2024-02-21T12:48:17;37;37;
75946;PMS5003;64628;50.104;14.614;2024-02-21T12:50:43;46;46;
75946;PMS5003;64628;50.104;14.614;2024-02-21T12:53:08;33;33;
75946;PMS5003;64628;50.104;14.614;2024-02-21T12:55:33;32;32;
75946;PMS5003;64628;50.104;14.614;2024-02-21T12:58:00;74;69;
75946;PMS5003;64628;50.104;14.614;2024-02-21T13:00:24;25;22;
75946;PMS5003;64628;50.104;14.614;2024-02-21T13:02:49;50;50;
75946;PMS5003;64628;50.104;14.614;2024-02-21T13:05:15;22;19;
75946;PMS5003;64628;50.104;14.614;2024-02-21T13:07:40;10;6;
75946;PMS5003;64628;50.104;14.614;2024-02-21T13:10:05;7;6;
75946;PMS5003;64628;50.104;14.614;2024-02-21T13:12:30;7;6;
75946;PMS5003;64628;50.104;14.614;2024-02-21T13:14:55;12;7;
75946;PMS5003;64628;50.104;14.614;2024-02-21T13:17:20;11;6;
75946;PMS5003;64628;50.104;14.614;2024-02-21T13:19:45;16;13;
75946;PMS5003;64628;50.104;14.614;2024-02-21T13:22:11;16;14;
75946;PMS5003;64628;50.104;14.614;2024-02-21T13:24:36;18;15;
75946;PMS5003;64628;50.104;14.614;2024-02-21T13:27:01;16;13;
75946;PMS5003;64628;50.104;14.614;2024-02-21T13:29:26;9;9;
75946;PMS5003;64628;50.104;14.614;2024-02-21T13:31:51;7;7;
75946;PMS5003;64628;50.104;14.614;2024-02-21T13:34:17;6;6;
75946;PMS5003;64628;50.104;14.614;2024-02-21T13:36:42;12;10;
75946;PMS5003;64628;50.104;14.614;2024-02-21T13:39:07;13;12;
75946;PMS5003;64628;50.104;14.614;2024-02-21T13:41:32;10;8;
75946;PMS5003;64628;50.104;14.614;2024-02-21T13:43:58;6;6;
75946;PMS5003;64628;50.104;14.614;2024-02-21T13:46:23;6;5;
75946;PMS5003;64628;50.104;14.614;2024-02-21T13:48:48;11;7;
75946;PMS5003;64628;50.104;14.614;2024-02-21T13:51:13;12;5;
75946;PMS5003;64628;50.104;14.614;2024-02-21T13:53:39;11;7;
75946;PMS5003;64628;50.104;14.614;2024-02-21T13:56:04;20;20;
75946;PMS5003;64628;50.104;14.614;2024-02-21T13:58:29;15;10;
75946;PMS5003;64628;50.104;14.614;2024-02-21T14:00:54;10;10;
75946;PMS5003;64628;50.104;14.614;2024-02-21T14:03:20;6;6;
75946;PMS5003;64628;50.104;14.614;2024-02-21T14:05:45;18;18;
75946;PMS5003;64628;50.104;14.614;2024-02-21T14:08:10;9;9;
75946;PMS5003;64628;50.104;14.614;2024-02-21T14:10:35;9;9;
75946;PMS5003;64628;50.104;14.614;2024-02-21T14:15:26;8;6;
75946;PMS5003;64628;50.104;14.614;2024-02-21T14:17:51;11;10;
75946;PMS5003;64628;50.104;14.614;2024-02-21T14:22:46;11;9;
75946;PMS5003;64628;50.104;14.614;2024-02-21T14:25:11;10;6;
75946;PMS5003;64628;50.104;14.614;2024-02-21T14:27:32;9;4;
75946;PMS5003;64628;50.104;14.614;2024-02-21T14:32:23;9;5;
75946;PMS5003;64628;50.104;14.614;2024-02-21T14:34:49;6;5;
75946;PMS5003;64628;50.104;14.614;2024-02-21T14:37:18;8;6;
75946;PMS5003;64628;50.104;14.614;2024-02-21T14:39:43;9;6;
75946;PMS5003;64628;50.104;14.614;2024-02-21T14:42:04;6;6;
75946;PMS5003;64628;50.104;14.614;2024-02-21T14:44:34;20;20;
75946;PMS5003;64628;50.104;14.614;2024-02-21T14:46:54;11;11;
75946;PMS5003;64628;50.104;14.614;2024-02-21T14:49:20;6;6;
75946;PMS5003;64628;50.104;14.614;2024-02-21T14:51:45;8;8;
75946;PMS5003;64628;50.104;14.614;2024-02-21T14:54:11;8;6;
75946;PMS5003;64628;50.104;14.614;2024-02-21T14:56:36;6;6;
75946;PMS5003;64628;50.104;14.614;2024-02-21T14:59:01;8;5;
75946;PMS5003;64628;50.104;14.614;2024-02-21T15:01:27;6;5;
75946;PMS5003;64628;50.104;14.614;2024-02-21T15:03:52;11;6;
75946;PMS5003;64628;50.104;14.614;2024-02-21T15:06:17;9;5;
75946;PMS5003;64628;50.104;14.614;2024-02-21T15:08:43;11;9;
75946;PMS5003;64628;50.104;14.614;2024-02-21T15:11:08;5;5;
75946;PMS5003;64628;50.104;14.614;2024-02-21T15:13:33;9;6;
75946;PMS5003;64628;50.104;14.614;2024-02-21T15:15:58;6;6;
75946;PMS5003;64628;50.104;14.614;2024-02-21T15:18:24;5;5;
75946;PMS5003;64628;50.104;14.614;2024-02-21T15:20:49;8;5;
75946;PMS5003;64628;50.104;14.614;2024-02-21T15:23:15;10;8;
75946;PMS5003;64628;50.104;14.614;2024-02-21T15:25:40;4;4;
75946;PMS5003;64628;50.104;14.614;2024-02-21T15:28:05;15;9;
75946;PMS5003;64628;50.104;14.614;2024-02-21T15:30:31;10;8;
75946;PMS5003;64628;50.104;14.614;2024-02-21T15:32:56;6;6;
75946;PMS5003;64628;50.104;14.614;2024-02-21T15:35:21;12;8;
75946;PMS5003;64628;50.104;14.614;2024-02-21T15:37:46;9;8;
75946;PMS5003;64628;50.104;14.614;2024-02-21T15:40:12;16;11;
75946;PMS5003;64628;50.104;14.614;2024-02-21T15:42:37;23;14;
75946;PMS5003;64628;50.104;14.614;2024-02-21T15:45:03;32;28;
75946;PMS5003;64628;50.104;14.614;2024-02-21T15:47:29;53;40;
75946;PMS5003;64628;50.104;14.614;2024-02-21T15:49:55;23;19;
75946;PMS5003;64628;50.104;14.614;2024-02-21T15:52:20;18;18;
75946;PMS5003;64628;50.104;14.614;2024-02-21T15:54:45;19;12;
75946;PMS5003;64628;50.104;14.614;2024-02-21T15:57:10;12;7;
75946;PMS5003;64628;50.104;14.614;2024-02-21T15:59:36;10;5;
75946;PMS5003;64628;50.104;14.614;2024-02-21T16:02:02;9;8;
75946;PMS5003;64628;50.104;14.614;2024-02-21T16:04:27;12;8;
75946;PMS5003;64628;50.104;14.614;2024-02-21T16:06:52;10;8;
75946;PMS5003;64628;50.104;14.614;2024-02-21T16:09:18;11;9;
75946;PMS5003;64628;50.104;14.614;2024-02-21T16:11:43;4;4;
75946;PMS5003;64628;50.104;14.614;2024-02-21T16:14:08;5;5;
75946;PMS5003;64628;50.104;14.614;2024-02-21T16:16:33;8;5;
75946;PMS5003;64628;50.104;14.614;2024-02-21T16:18:59;5;4;